createdAt,value
2023-03-24T00:00:48.914Z,5.60
2023-03-24T00:03:25.740Z,5.90
2023-03-24T00:06:03.931Z,6.10
2023-03-24T00:08:36.518Z,6.30
2023-03-24T00:11:07.141Z,6.10
2023-03-24T00:13:38.860Z,6.00
2023-03-24T00:16:09.423Z,6.60
2023-03-24T00:18:39.214Z,6.90
2023-03-24T00:21:08.880Z,6.80
2023-03-24T00:23:36.509Z,6.70
2023-03-24T00:26:08.936Z,6.60
2023-03-24T00:28:37.027Z,6.40
2023-03-24T00:31:06.290Z,6.90
2023-03-24T00:33:35.050Z,6.30
2023-03-24T00:36:07.455Z,6.70
2023-03-24T00:38:35.099Z,6.50
2023-03-24T00:41:02.852Z,7.10
2023-03-24T00:43:31.178Z,6.60
2023-03-24T00:46:02.024Z,6.10
2023-03-24T00:48:30.433Z,6.30
2023-03-24T00:50:58.154Z,6.50
2023-03-24T00:53:29.212Z,6.50
2023-03-24T00:55:58.330Z,6.10
2023-03-24T00:58:26.159Z,6.40
2023-03-24T01:00:56.175Z,6.40
2023-03-24T01:03:27.860Z,6.80
2023-03-24T01:06:03.050Z,6.90
2023-03-24T01:08:31.837Z,7.00
2023-03-24T01:11:01.263Z,6.80
2023-03-24T01:13:30.086Z,7.20
2023-03-24T01:15:58.498Z,6.80
2023-03-24T01:18:27.587Z,7.30
2023-03-24T01:20:55.303Z,7.30
2023-03-24T01:23:25.857Z,7.10
2023-03-24T01:25:54.344Z,7.00
2023-03-24T01:28:25.135Z,7.50
2023-03-24T01:30:54.052Z,7.40
2023-03-24T01:33:22.259Z,8.20
2023-03-24T01:35:51.061Z,8.50
2023-03-24T01:38:18.752Z,8.50
2023-03-24T01:40:47.502Z,8.30
2023-03-24T01:43:24.038Z,8.70
2023-03-24T01:46:16.335Z,9.80
2023-03-24T01:48:54.420Z,10.10
2023-03-24T01:51:30.514Z,9.70
2023-03-24T01:54:05.623Z,9.90
2023-03-24T01:56:38.545Z,10.00
2023-03-24T01:59:09.909Z,9.70
2023-03-24T02:01:45.618Z,9.90
2023-03-24T02:04:34.536Z,10.30
2023-03-24T02:07:36.667Z,10.80
2023-03-24T02:10:09.451Z,11.50
2023-03-24T02:12:37.464Z,12.50
2023-03-24T02:15:10.057Z,11.90
2023-03-24T02:17:57.322Z,13.30
2023-03-24T02:20:32.744Z,13.20
2023-03-24T02:23:35.205Z,14.30
2023-03-24T02:26:14.335Z,13.80
2023-03-24T02:29:23.602Z,14.40
2023-03-24T02:32:32.560Z,15.10
2023-03-24T02:35:42.118Z,14.30
2023-03-24T02:38:38.006Z,13.80
2023-03-24T02:41:09.582Z,14.30
2023-03-24T02:43:55.458Z,14.60
2023-03-24T02:46:27.765Z,14.60
2023-03-24T02:49:22.253Z,14.40
2023-03-24T02:52:15.362Z,14.80
2023-03-24T02:54:49.447Z,15.20
2023-03-24T02:57:22.881Z,15.10
2023-03-24T03:00:26.345Z,14.40
2023-03-24T03:03:10.066Z,14.80
2023-03-24T03:05:59.674Z,14.10
2023-03-24T03:08:29.305Z,14.80
2023-03-24T03:10:58.495Z,14.60
2023-03-24T03:13:30.112Z,14.40
2023-03-24T03:16:01.595Z,14.00
2023-03-24T03:18:39.784Z,13.90
2023-03-24T03:21:13.221Z,13.30
2023-03-24T03:23:52.265Z,14.80
2023-03-24T03:26:26.745Z,14.00
2023-03-24T03:29:01.697Z,13.70
2023-03-24T03:31:35.227Z,13.60
2023-03-24T03:34:28.524Z,13.40
2023-03-24T03:37:24.586Z,13.50
2023-03-24T03:39:59.005Z,12.50
2023-03-24T03:42:27.396Z,12.50
2023-03-24T03:44:55.407Z,13.20
2023-03-24T03:47:23.287Z,12.90
2023-03-24T03:49:51.532Z,13.50
2023-03-24T03:52:19.363Z,13.90
2023-03-24T03:54:48.077Z,14.40
2023-03-24T03:57:16.389Z,13.10
2023-03-24T04:00:15.805Z,13.10
2023-03-24T04:02:48.776Z,13.00
2023-03-24T04:05:29.138Z,13.00
2023-03-24T04:08:25.152Z,12.00
2023-03-24T04:11:27.912Z,11.80
2023-03-24T04:14:19.159Z,11.50
2023-03-24T04:17:51.290Z,11.70
2023-03-24T04:20:56.661Z,11.20
2023-03-24T04:23:49.848Z,11.50
2023-03-24T04:26:26.695Z,11.00
2023-03-24T04:29:03.509Z,11.00
2023-03-24T04:31:53.439Z,11.10
2023-03-24T04:34:42.283Z,10.70
2023-03-24T04:37:27.646Z,10.60
2023-03-24T04:40:06.223Z,10.70
2023-03-24T04:42:42.090Z,9.70
2023-03-24T04:45:10.177Z,11.30
2023-03-24T04:47:53.600Z,9.90
2023-03-24T04:50:43.506Z,8.90
2023-03-24T04:53:16.864Z,10.20
2023-03-24T04:56:04.402Z,10.10
2023-03-24T04:58:47.358Z,10.00
2023-03-24T05:01:17.180Z,9.90
2023-03-24T05:03:49.640Z,10.80
2023-03-24T05:06:17.464Z,11.00
2023-03-24T05:08:45.182Z,10.40
2023-03-24T05:11:13.191Z,10.80
2023-03-24T05:13:41.929Z,9.90
2023-03-24T05:16:10.053Z,10.60
2023-03-24T05:18:41.406Z,10.00
2023-03-24T05:21:09.509Z,9.10
2023-03-24T05:23:37.172Z,8.90
2023-03-24T05:26:05.506Z,8.80
2023-03-24T05:28:35.236Z,9.30
2023-03-24T05:31:03.540Z,8.30
2023-03-24T05:33:40.579Z,8.70
2023-03-24T05:36:11.375Z,9.00
2023-03-24T05:38:39.348Z,9.10
2023-03-24T05:41:07.881Z,9.20
2023-03-24T05:43:38.238Z,10.00
2023-03-24T05:46:10.691Z,8.90
2023-03-24T05:48:38.332Z,9.00
2023-03-24T05:51:12.955Z,9.40
2023-03-24T05:53:40.963Z,8.10
2023-03-24T05:56:32.817Z,8.10
2023-03-24T05:59:11.954Z,8.90
2023-03-24T06:01:58.609Z,9.40
2023-03-24T06:04:49.282Z,9.00
2023-03-24T06:07:19.691Z,8.70
2023-03-24T06:09:52.644Z,8.90
2023-03-24T06:12:21.765Z,8.00
2023-03-24T06:14:54.189Z,7.90
2023-03-24T06:17:24.481Z,9.00
2023-03-24T06:19:54.579Z,9.20
2023-03-24T06:23:00.687Z,9.40
2023-03-24T06:25:35.694Z,8.90
2023-03-24T06:28:14.173Z,8.80
2023-03-24T06:30:47.552Z,9.30
2023-03-24T06:33:22.113Z,8.40
2023-03-24T06:35:50.811Z,9.50
2023-03-24T06:38:19.204Z,8.90
2023-03-24T06:40:46.821Z,11.00
2023-03-24T06:43:14.848Z,9.00
2023-03-24T06:45:44.987Z,9.30
2023-03-24T06:48:18.573Z,9.20
2023-03-24T06:50:46.642Z,9.90
2023-03-24T06:53:15.606Z,11.30
2023-03-24T06:55:43.646Z,9.50
2023-03-24T06:58:12.764Z,9.60
2023-03-24T07:01:14.834Z,11.00
2023-03-24T07:03:55.286Z,9.80
2023-03-24T07:06:33.175Z,9.40
2023-03-24T07:09:12.304Z,9.20
2023-03-24T07:11:39.981Z,8.10
2023-03-24T07:14:07.670Z,10.30
2023-03-24T07:16:36.023Z,9.20
2023-03-24T07:19:23.912Z,7.80
2023-03-24T07:22:00.728Z,7.80
2023-03-24T07:24:41.459Z,9.00
2023-03-24T07:27:29.143Z,8.90
2023-03-24T07:29:56.805Z,8.00
2023-03-24T07:32:39.222Z,7.60
2023-03-24T07:35:10.828Z,6.80
2023-03-24T07:37:39.061Z,7.50
2023-03-24T07:40:10.978Z,6.40
2023-03-24T07:42:40.080Z,7.00
2023-03-24T07:45:28.458Z,7.60
2023-03-24T07:48:01.770Z,6.10
2023-03-24T07:50:31.550Z,6.00
2023-03-24T07:53:00.355Z,5.80
2023-03-24T07:55:28.505Z,6.70
2023-03-24T07:58:00.197Z,6.40
2023-03-24T08:00:29.197Z,5.80
2023-03-24T08:03:09.550Z,6.10
2023-03-24T08:05:49.364Z,5.60
2023-03-24T08:08:32.030Z,5.60
2023-03-24T08:10:59.679Z,5.90
2023-03-24T08:13:27.372Z,5.90
2023-03-24T08:15:55.029Z,5.60
2023-03-24T08:18:24.367Z,5.20
2023-03-24T08:20:56.527Z,5.50
2023-03-24T08:23:24.483Z,5.90
2023-03-24T08:25:52.162Z,5.30
2023-03-24T08:28:19.937Z,6.00
2023-03-24T08:30:48.002Z,6.10
2023-03-24T08:33:16.762Z,5.70
2023-03-24T08:35:48.392Z,5.80
2023-03-24T08:38:18.758Z,5.60
2023-03-24T08:40:48.921Z,5.40
2023-03-24T08:43:17.396Z,4.80
2023-03-24T08:45:45.012Z,4.60
2023-03-24T08:48:12.737Z,5.00
2023-03-24T08:50:42.081Z,4.50
2023-03-24T08:53:11.792Z,4.60
2023-03-24T08:55:43.301Z,4.70
2023-03-24T08:58:16.486Z,5.60
2023-03-24T09:00:45.425Z,5.10
2023-03-24T09:03:18.139Z,5.50
2023-03-24T09:05:46.577Z,4.40
2023-03-24T09:08:19.589Z,5.20
2023-03-24T09:10:49.585Z,5.40
2023-03-24T09:13:18.411Z,4.70
2023-03-24T09:15:51.684Z,4.90
2023-03-24T09:18:21.509Z,5.40
2023-03-24T09:20:49.901Z,5.10
2023-03-24T09:23:18.979Z,5.00
2023-03-24T09:25:49.270Z,4.90
2023-03-24T09:28:17.214Z,4.80
2023-03-24T09:30:44.856Z,5.20
2023-03-24T09:33:12.896Z,5.50
2023-03-24T09:35:41.052Z,5.10
2023-03-24T09:38:11.509Z,5.20
2023-03-24T09:40:40.407Z,5.00
2023-03-24T09:43:15.579Z,5.30
2023-03-24T09:45:50.386Z,5.00
2023-03-24T09:48:25.000Z,5.30
2023-03-24T09:51:15.416Z,5.20
2023-03-24T09:53:55.206Z,5.20
2023-03-24T09:56:23.822Z,5.30
2023-03-24T09:59:00.184Z,5.50
2023-03-24T10:01:27.921Z,5.20
2023-03-24T10:03:58.358Z,5.60
2023-03-24T10:06:28.401Z,4.90
2023-03-24T10:09:14.091Z,4.20
2023-03-24T10:12:16.287Z,4.50
2023-03-24T10:15:06.872Z,4.60
2023-03-24T10:17:42.946Z,4.20
2023-03-24T10:20:25.361Z,4.20
2023-03-24T10:23:18.404Z,4.40
2023-03-24T10:25:52.726Z,4.10
2023-03-24T10:28:24.932Z,4.80
2023-03-24T10:30:54.237Z,4.40
2023-03-24T10:33:22.452Z,4.40
2023-03-24T10:36:08.498Z,4.40
2023-03-24T10:38:36.410Z,4.50
2023-03-24T10:41:04.733Z,4.50
2023-03-24T10:43:33.428Z,4.50
2023-03-24T10:46:02.042Z,4.70
2023-03-24T10:49:10.179Z,5.80
2023-03-24T10:51:38.381Z,4.30
2023-03-24T10:54:26.054Z,4.80
2023-03-24T10:57:03.720Z,4.70
2023-03-24T10:59:35.777Z,4.20
2023-03-24T11:02:09.650Z,4.50
2023-03-24T11:04:39.353Z,5.70
2023-03-24T11:07:12.539Z,4.80
2023-03-24T11:10:07.635Z,8.50
2023-03-24T11:12:40.792Z,4.40
2023-03-24T11:15:23.045Z,5.00
2023-03-24T11:17:57.722Z,4.90
2023-03-24T11:20:35.433Z,4.60
2023-03-24T11:23:14.137Z,4.70
2023-03-24T11:25:42.467Z,4.60
2023-03-24T11:28:16.135Z,4.40
2023-03-24T11:30:46.743Z,4.30
2023-03-24T11:33:20.698Z,4.60
2023-03-24T11:36:28.458Z,5.00
2023-03-24T11:39:17.519Z,3.70
2023-03-24T11:42:06.676Z,3.90
2023-03-24T11:44:53.248Z,4.00
2023-03-24T11:47:32.615Z,3.70
2023-03-24T11:50:09.755Z,3.60
2023-03-24T11:52:48.111Z,3.70
2023-03-24T11:55:18.169Z,3.70
2023-03-24T11:57:57.095Z,3.50
2023-03-24T12:00:34.818Z,3.40
2023-03-24T12:03:26.585Z,3.30
2023-03-24T12:06:03.294Z,3.70
2023-03-24T12:08:46.271Z,4.00
2023-03-24T12:11:19.459Z,3.80
2023-03-24T12:13:49.626Z,3.00
2023-03-24T12:16:54.452Z,3.20
2023-03-24T12:19:33.067Z,4.90
2023-03-24T12:22:10.463Z,3.20
2023-03-24T12:24:53.920Z,3.30
2023-03-24T12:27:32.158Z,3.30
2023-03-24T12:30:05.562Z,3.70
2023-03-24T12:33:15.937Z,3.30
2023-03-24T12:35:55.713Z,3.20
2023-03-24T12:38:32.656Z,3.20
2023-03-24T12:41:24.450Z,3.30
2023-03-24T12:44:01.722Z,3.20
2023-03-24T12:46:46.581Z,3.20
2023-03-24T12:49:50.704Z,3.40
2023-03-24T12:52:25.854Z,3.60
2023-03-24T12:55:04.853Z,3.70
2023-03-24T12:57:38.428Z,4.20
2023-03-24T13:00:12.101Z,3.80
2023-03-24T13:02:44.391Z,4.60
2023-03-24T13:05:19.059Z,3.50
2023-03-24T13:07:53.977Z,3.40
2023-03-24T13:10:25.640Z,4.20
2023-03-24T13:12:58.520Z,3.80
2023-03-24T13:15:58.909Z,4.40
2023-03-24T13:18:32.602Z,3.90
2023-03-24T13:21:04.629Z,3.90
2023-03-24T13:23:56.662Z,3.70
2023-03-24T13:26:42.822Z,3.80
2023-03-24T13:29:49.396Z,3.60
2023-03-24T13:32:20.388Z,3.20
2023-03-24T13:34:53.519Z,3.50
2023-03-24T13:37:27.643Z,3.50
2023-03-24T13:40:00.638Z,3.50
2023-03-24T13:42:33.770Z,3.60
2023-03-24T13:45:03.996Z,3.60
2023-03-24T13:47:51.005Z,3.50
2023-03-24T13:50:18.828Z,3.50
2023-03-24T13:52:48.750Z,3.70
2023-03-24T13:55:27.374Z,3.30
2023-03-24T13:58:10.538Z,4.10
2023-03-24T14:01:06.716Z,4.30
2023-03-24T14:04:15.617Z,5.70
2023-03-24T14:07:01.730Z,7.90
2023-03-24T14:09:31.187Z,3.40
2023-03-24T14:11:58.811Z,4.40
2023-03-24T14:14:27.214Z,4.40
2023-03-24T14:17:04.190Z,3.20
2023-03-24T14:19:40.487Z,3.50
2023-03-24T14:22:15.314Z,3.60
2023-03-24T14:24:45.856Z,3.70
2023-03-24T14:27:35.849Z,3.30
2023-03-24T14:30:13.040Z,3.50
2023-03-24T14:32:49.246Z,3.80
2023-03-24T14:35:35.000Z,3.60
2023-03-24T14:38:05.495Z,3.70
2023-03-24T14:40:41.770Z,3.20
2023-03-24T14:43:18.108Z,3.30
2023-03-24T14:46:09.173Z,3.40
2023-03-24T14:48:57.926Z,3.50
2023-03-24T14:51:36.744Z,3.50
2023-03-24T14:54:14.439Z,3.40
2023-03-24T14:56:44.622Z,4.20
2023-03-24T14:59:25.573Z,3.60
2023-03-24T15:02:00.474Z,3.50
2023-03-24T15:04:28.292Z,3.30
2023-03-24T15:06:55.874Z,2.80
2023-03-24T15:09:23.466Z,3.20
2023-03-24T15:11:52.060Z,8.00
2023-03-24T15:14:22.982Z,4.50
2023-03-24T15:16:57.378Z,6.20
2023-03-24T15:19:27.294Z,3.90
2023-03-24T15:22:10.447Z,3.60
2023-03-24T15:24:41.569Z,5.00
2023-03-24T15:27:22.891Z,9.80
2023-03-24T15:29:56.019Z,10.30
2023-03-24T15:32:27.059Z,5.00
2023-03-24T15:34:56.961Z,9.10
2023-03-24T15:37:32.423Z,4.00
2023-03-24T15:40:14.759Z,6.20
2023-03-24T15:42:44.521Z,5.30
2023-03-24T15:45:22.697Z,4.30
2023-03-24T15:47:54.550Z,3.90
2023-03-24T15:50:38.150Z,3.90
2023-03-24T15:53:14.796Z,4.90
2023-03-24T15:55:43.490Z,4.90
2023-03-24T15:58:20.725Z,6.60
2023-03-24T16:00:50.996Z,6.90
2023-03-24T16:03:19.290Z,6.50
2023-03-24T16:05:48.923Z,6.30
2023-03-24T16:08:28.633Z,6.70
2023-03-24T16:11:07.028Z,5.70
2023-03-24T16:13:34.664Z,5.30
2023-03-24T16:16:14.573Z,6.20
2023-03-24T16:18:47.063Z,6.30
2023-03-24T16:21:18.030Z,6.00
2023-03-24T16:23:46.520Z,6.30
2023-03-24T16:26:22.051Z,6.20
2023-03-24T16:28:50.571Z,7.80
2023-03-24T16:31:32.238Z,7.30
2023-03-24T16:33:59.845Z,8.20
2023-03-24T16:36:27.746Z,7.90
2023-03-24T16:38:57.842Z,8.20
2023-03-24T16:41:26.066Z,8.50
2023-03-24T16:43:54.174Z,8.60
2023-03-24T16:46:28.106Z,9.00
2023-03-24T16:48:56.023Z,22.90
2023-03-24T16:51:23.836Z,31.10
2023-03-24T16:53:51.490Z,26.10
2023-03-24T16:56:21.329Z,23.20
2023-03-24T16:58:49.953Z,21.30
2023-03-24T17:01:26.562Z,18.70
2023-03-24T17:03:56.047Z,10.60
2023-03-24T17:06:24.520Z,15.80
2023-03-24T17:08:52.134Z,14.60
2023-03-24T17:11:27.578Z,11.50
2023-03-24T17:13:57.349Z,8.80
2023-03-24T17:16:25.677Z,6.80
2023-03-24T17:18:53.473Z,6.90
2023-03-24T17:21:21.794Z,7.90
2023-03-24T17:23:49.652Z,8.40
2023-03-24T17:26:17.343Z,9.00
2023-03-24T17:28:45.047Z,9.30
2023-03-24T17:31:12.922Z,9.90
2023-03-24T17:33:40.756Z,10.40
2023-03-24T17:36:13.904Z,10.20
2023-03-24T17:38:42.300Z,10.70
2023-03-24T17:41:10.585Z,11.30
2023-03-24T17:43:38.244Z,11.00
2023-03-24T17:46:05.943Z,11.70
2023-03-24T17:48:34.250Z,11.30
2023-03-24T17:51:01.831Z,12.40
2023-03-24T17:53:29.581Z,12.40
2023-03-24T17:55:59.204Z,12.00
2023-03-24T17:58:27.136Z,12.30
2023-03-24T18:00:58.086Z,12.20
2023-03-24T18:03:25.928Z,13.00
2023-03-24T18:05:53.746Z,13.30
2023-03-24T18:08:21.383Z,14.70
2023-03-24T18:10:49.140Z,17.20
2023-03-24T18:13:16.934Z,15.00
2023-03-24T18:15:44.642Z,16.10
2023-03-24T18:18:12.237Z,16.30
2023-03-24T18:20:39.963Z,16.50
2023-03-24T18:23:07.700Z,16.00
2023-03-24T18:25:35.624Z,16.30
2023-03-24T18:28:03.396Z,17.70
2023-03-24T18:30:32.199Z,16.80
2023-03-24T18:33:01.411Z,19.00
2023-03-24T18:35:29.602Z,20.90
2023-03-24T18:37:57.315Z,23.00
2023-03-24T18:40:24.963Z,24.20
2023-03-24T18:42:52.754Z,24.50
2023-03-24T18:45:20.734Z,25.40
2023-03-24T18:47:48.444Z,25.70
2023-03-24T18:50:16.157Z,25.70
2023-03-24T18:52:43.777Z,26.60
2023-03-24T18:55:11.465Z,28.90
2023-03-24T18:57:40.188Z,29.50
2023-03-24T19:00:10.325Z,30.70
2023-03-24T19:02:38.473Z,30.30
2023-03-24T19:05:06.781Z,28.60
2023-03-24T19:07:37.055Z,29.70
2023-03-24T19:10:05.309Z,30.90
2023-03-24T19:12:32.968Z,30.60
2023-03-24T19:15:01.574Z,30.20
2023-03-24T19:17:29.239Z,31.10
2023-03-24T19:19:58.110Z,33.00
2023-03-24T19:22:26.817Z,34.40
2023-03-24T19:24:54.460Z,34.00
2023-03-24T19:27:23.359Z,34.00
2023-03-24T19:29:51.221Z,35.60
2023-03-24T19:32:18.847Z,33.50
2023-03-24T19:34:47.168Z,28.70
2023-03-24T19:37:14.818Z,23.20
2023-03-24T19:39:42.392Z,22.70
2023-03-24T19:42:10.068Z,20.90
2023-03-24T19:44:37.785Z,18.70
2023-03-24T19:47:05.361Z,19.00
2023-03-24T19:49:33.002Z,19.80
2023-03-24T19:52:00.633Z,22.00
2023-03-24T19:54:28.303Z,20.70
2023-03-24T19:56:56.103Z,20.10
2023-03-24T19:59:23.769Z,15.70
2023-03-24T20:01:51.447Z,7.90
2023-03-24T20:04:19.138Z,6.20
2023-03-24T20:06:46.797Z,5.70
2023-03-24T20:09:14.394Z,5.00
2023-03-24T20:11:42.077Z,5.00
2023-03-24T20:14:10.033Z,4.40
2023-03-24T20:16:37.745Z,4.50
2023-03-24T20:19:05.341Z,4.90
2023-03-24T20:21:33.101Z,5.10
2023-03-24T20:24:00.827Z,5.80
2023-03-24T20:26:29.403Z,5.70
2023-03-24T20:28:57.621Z,6.20
2023-03-24T20:31:26.094Z,6.60
2023-03-24T20:33:53.880Z,5.80
2023-03-24T20:36:21.674Z,7.10
2023-03-24T20:38:49.414Z,7.70
2023-03-24T20:41:19.408Z,7.40
2023-03-24T20:43:47.056Z,8.10
2023-03-24T20:46:17.163Z,8.00
2023-03-24T20:48:45.776Z,8.10
2023-03-24T20:51:13.473Z,7.50
2023-03-24T20:53:41.525Z,6.90
2023-03-24T20:56:13.227Z,7.20
2023-03-24T20:58:42.119Z,7.50
2023-03-24T21:01:22.268Z,8.60
2023-03-24T21:03:51.686Z,8.40
2023-03-24T21:06:20.742Z,8.30
2023-03-24T21:08:48.364Z,8.50
2023-03-24T21:11:16.087Z,9.20
2023-03-24T21:13:44.013Z,10.00
2023-03-24T21:16:12.114Z,9.30
2023-03-24T21:18:43.584Z,9.70
2023-03-24T21:21:12.274Z,10.00
2023-03-24T21:23:40.549Z,10.70
2023-03-24T21:26:12.771Z,11.70
2023-03-24T21:28:41.109Z,12.50
2023-03-24T21:31:13.197Z,11.80
2023-03-24T21:33:43.354Z,12.60
2023-03-24T21:36:12.436Z,11.10
2023-03-24T21:38:40.487Z,11.20
2023-03-24T21:41:08.428Z,11.60
2023-03-24T21:43:36.181Z,12.50
2023-03-24T21:46:04.066Z,12.10
2023-03-24T21:48:34.877Z,11.30
2023-03-24T21:51:03.901Z,11.40
2023-03-24T21:53:32.031Z,12.00
2023-03-24T21:56:04.626Z,11.80
2023-03-24T21:58:33.556Z,11.90
2023-03-24T22:01:01.663Z,13.10
2023-03-24T22:03:30.345Z,12.90
2023-03-24T22:05:57.960Z,13.30
2023-03-24T22:08:30.510Z,13.50
2023-03-24T22:10:59.302Z,13.00
2023-03-24T22:13:28.218Z,12.20
2023-03-24T22:15:57.437Z,11.70
2023-03-24T22:18:26.863Z,10.90
2023-03-24T22:21:06.838Z,10.70
2023-03-24T22:23:40.007Z,11.30
2023-03-24T22:26:11.002Z,11.80
2023-03-24T22:28:39.674Z,12.20
2023-03-24T22:31:09.585Z,12.80
2023-03-24T22:33:38.017Z,14.10
2023-03-24T22:36:06.649Z,12.30
2023-03-24T22:38:34.724Z,12.50
2023-03-24T22:41:04.856Z,13.30
2023-03-24T22:43:35.341Z,12.50
2023-03-24T22:46:03.768Z,14.60
2023-03-24T22:48:31.557Z,14.10
2023-03-24T22:50:59.612Z,13.70
2023-03-24T22:53:27.205Z,13.80
2023-03-24T22:55:54.829Z,12.70
2023-03-24T22:58:22.508Z,13.60
2023-03-24T23:00:54.607Z,15.00
2023-03-24T23:03:22.216Z,13.50
2023-03-24T23:05:50.034Z,18.60
2023-03-24T23:08:19.126Z,15.50
2023-03-24T23:10:47.685Z,21.20
2023-03-24T23:13:17.098Z,31.90
2023-03-24T23:15:50.211Z,18.00
2023-03-24T23:18:18.312Z,19.60
2023-03-24T23:20:47.024Z,14.10
2023-03-24T23:23:15.376Z,14.50
2023-03-24T23:25:44.609Z,14.90
2023-03-24T23:28:13.343Z,15.60
2023-03-24T23:30:41.275Z,16.00
2023-03-24T23:33:09.340Z,16.80
2023-03-24T23:35:37.587Z,17.50
2023-03-24T23:38:06.736Z,16.70
2023-03-24T23:40:34.810Z,15.90
2023-03-24T23:43:02.452Z,24.80
2023-03-24T23:45:30.437Z,28.60
2023-03-24T23:47:58.285Z,20.50
2023-03-24T23:50:27.186Z,24.80
2023-03-24T23:52:55.842Z,23.80
2023-03-24T23:55:25.864Z,22.50
2023-03-24T23:57:54.763Z,21.30
